Time;durP1;ratioP1;P1;durP2;ratioP2;P2;SDS_P1;SDS_P2;PMS_P1;PMS_P2;Temp;Humidity;BMP_temperature;BMP_pressure;BME280_temperature;BME280_humidity;BME280_pressure;Samples;Min_cycle;Max_cycle;Signal;HPM_P1;HPM_P2
2021/03/31 00:00:47;;;;;;;12.27;6.70;;;;;;;8.93;50.05;97229.44;5056236;28;20036;-78
2021/03/31 00:03:15;;;;;;;9.87;5.70;;;;;;;8.80;50.85;97226.13;5058447;28;20040;-78
2021/03/31 00:05:41;;;;;;;11.83;6.60;;;;;;;8.76;51.10;97223.91;5044464;28;20028;-78
2021/03/31 00:08:07;;;;;;;12.73;5.70;;;;;;;8.73;51.26;97212.69;5057864;28;20115;-77
2021/03/31 00:10:42;;;;;;;13.70;6.10;;;;;;;8.74;51.02;97224.84;5056152;28;20107;-77
2021/03/31 00:13:07;;;;;;;11.13;5.90;;;;;;;8.67;51.26;97217.59;5060337;28;20036;-78
2021/03/31 00:15:33;;;;;;;11.80;6.13;;;;;;;8.64;51.36;97213.41;5063876;28;20016;-80
2021/03/31 00:17:59;;;;;;;10.57;5.47;;;;;;;8.59;51.62;97212.97;5044391;28;20033;-80
2021/03/31 00:20:25;;;;;;;12.10;6.10;;;;;;;8.35;52.51;97220.09;5065315;28;20020;-78
2021/03/31 00:22:51;;;;;;;12.43;5.70;;;;;;;8.30;52.87;97222.28;5063261;28;20686;-78
2021/03/31 00:25:18;;;;;;;12.07;5.83;;;;;;;8.27;52.88;97224.16;5058585;28;20036;-78
2021/03/31 00:27:44;;;;;;;12.73;6.57;;;;;;;8.24;53.25;97219.16;5053516;28;20264;-78
2021/03/31 00:30:12;;;;;;;12.63;5.50;;;;;;;8.29;52.76;97215.38;5049350;28;20909;-78
2021/03/31 00:32:38;;;;;;;9.57;5.57;;;;;;;8.36;52.21;97220.00;5050924;28;20492;-80
2021/03/31 00:35:06;;;;;;;10.20;5.30;;;;;;;8.30;52.54;97217.03;5077529;28;20052;-81
2021/03/31 00:37:32;;;;;;;12.60;5.57;;;;;;;8.23;53.33;97219.31;5054188;28;20043;-77
2021/03/31 00:39:59;;;;;;;12.33;6.20;;;;;;;8.22;53.16;97215.03;5049819;28;20024;-78
2021/03/31 00:42:25;;;;;;;13.97;6.33;;;;;;;8.15;53.39;97221.66;5069908;28;20036;-82
2021/03/31 00:44:50;;;;;;;15.77;6.63;;;;;;;8.12;53.87;97220.16;5067863;28;20025;-78
2021/03/31 00:47:16;;;;;;;12.67;6.40;;;;;;;8.09;53.75;97215.16;5068624;28;20075;-79
2021/03/31 00:49:42;;;;;;;15.70;5.90;;;;;;;7.99;54.31;97215.03;5064024;28;20024;-79
2021/03/31 00:52:08;;;;;;;11.30;5.73;;;;;;;7.94;54.06;97218.94;5063259;28;20123;-78
2021/03/31 00:54:34;;;;;;;11.70;6.23;;;;;;;7.98;54.22;97207.25;5053148;28;20025;-78
2021/03/31 00:57:00;;;;;;;13.83;5.77;;;;;;;7.91;54.42;97200.84;5064773;28;20189;-78
2021/03/31 00:59:26;;;;;;;13.40;6.67;;;;;;;7.94;54.40;97198.00;5061496;28;20078;-78
2021/03/31 01:01:54;;;;;;;13.43;6.07;;;;;;;7.84;55.05;97200.47;5048261;28;20050;-78
2021/03/31 01:04:19;;;;;;;12.23;6.40;;;;;;;7.75;55.21;97199.44;5049715;28;20025;-79
2021/03/31 01:06:45;;;;;;;14.17;6.43;;;;;;;7.66;55.75;97194.06;5067067;28;20024;-78
2021/03/31 01:09:11;;;;;;;13.00;7.20;;;;;;;7.64;55.65;97196.78;5051888;28;20057;-81
2021/03/31 01:11:47;;;;;;;16.20;7.00;;;;;;;7.60;56.06;97197.97;5053421;28;20032;-79
2021/03/31 01:14:13;;;;;;;13.27;7.10;;;;;;;7.62;55.78;97193.47;5038368;28;20522;-81
2021/03/31 01:16:41;;;;;;;13.23;7.10;;;;;;;7.65;55.84;97187.16;5055079;28;20048;-79
2021/03/31 01:19:47;;;;;;;10.23;6.30;;;;;;;7.69;55.37;97185.97;5056852;28;20036;-78
2021/03/31 01:22:55;;;;;;;13.43;6.47;;;;;;;7.67;55.52;97178.22;5064296;28;20028;-78
2021/03/31 01:25:50;;;;;;;12.90;6.00;;;;;;;7.71;55.13;97174.44;5020190;28;20036;-79
2021/03/31 01:28:26;;;;;;;15.10;7.13;;;;;;;7.72;55.33;97181.34;5053742;28;20037;-78
2021/03/31 01:31:23;;;;;;;13.47;6.57;;;;;;;7.60;56.03;97177.03;5045025;28;20035;-78
2021/03/31 01:34:13;;;;;;;13.63;7.07;;;;;;;7.62;55.61;97176.94;5055051;28;20162;-78
2021/03/31 01:36:41;;;;;;;14.13;7.30;;;;;;;7.63;55.66;97178.59;5056641;28;20072;-78
2021/03/31 01:39:08;;;;;;;15.87;7.43;;;;;;;7.56;56.10;97173.81;5062673;28;20032;-78
2021/03/31 01:41:36;;;;;;;12.70;7.63;;;;;;;7.54;55.68;97172.25;5068318;28;20036;-78
2021/03/31 01:44:08;;;;;;;14.53;7.07;;;;;;;7.59;55.92;97180.59;5067860;28;20028;-78
2021/03/31 01:46:38;;;;;;;15.83;9.50;;;;;;;7.52;55.92;97171.56;5054942;28;20916;-78
2021/03/31 01:49:05;;;;;;;14.20;7.63;;;;;;;7.56;55.34;97178.22;5051471;28;20111;-79
2021/03/31 01:51:33;;;;;;;14.30;9.03;;;;;;;7.55;55.37;97171.31;5071366;28;20052;-78
2021/03/31 01:54:00;;;;;;;12.90;7.10;;;;;;;7.37;56.15;97165.69;5077092;28;20027;-81
2021/03/31 01:56:27;;;;;;;13.83;8.33;;;;;;;7.30;56.35;97165.31;5048790;28;20406;-78
2021/03/31 01:58:54;;;;;;;15.83;8.30;;;;;;;7.24;56.54;97165.81;5060015;28;20044;-80
2021/03/31 02:01:21;;;;;;;14.13;8.00;;;;;;;7.19;56.60;97164.47;5052352;28;20031;-78
2021/03/31 02:03:51;;;;;;;16.13;8.40;;;;;;;7.22;56.77;97162.47;5051543;28;20039;-78
2021/03/31 02:06:18;;;;;;;16.30;7.93;;;;;;;7.19;57.14;97160.06;5070274;28;20044;-79
2021/03/31 02:08:45;;;;;;;14.90;7.33;;;;;;;7.21;56.69;97160.81;5054468;28;20025;-78
2021/03/31 02:11:12;;;;;;;15.07;8.27;;;;;;;7.27;56.50;97152.47;5055190;28;20032;-78
2021/03/31 02:13:38;;;;;;;20.40;8.90;;;;;;;7.32;56.11;97152.97;5062940;28;20045;-78
2021/03/31 02:16:05;;;;;;;20.57;9.00;;;;;;;7.25;56.63;97151.78;5068695;28;20362;-78
2021/03/31 02:18:33;;;;;;;13.80;7.63;;;;;;;7.22;56.31;97146.75;5052013;28;20066;-78
2021/03/31 02:21:00;;;;;;;15.63;9.13;;;;;;;7.23;56.27;97153.66;5034955;28;20032;-78
2021/03/31 02:23:27;;;;;;;17.60;9.43;;;;;;;7.19;56.47;97151.41;5037711;28;20051;-78
2021/03/31 02:25:53;;;;;;;13.90;7.60;;;;;;;7.17;56.58;97150.66;5042540;28;20088;-78
2021/03/31 02:28:19;;;;;;;17.30;10.30;;;;;;;7.08;57.16;97141.75;5049000;28;20036;-78
2021/03/31 02:30:45;;;;;;;18.43;9.10;;;;;;;7.09;56.75;97143.41;5075087;28;20059;-78
2021/03/31 02:33:12;;;;;;;15.73;8.00;;;;;;;7.07;57.01;97137.44;5060359;28;20071;-78
2021/03/31 02:35:41;;;;;;;15.10;8.87;;;;;;;7.06;56.77;97135.78;5055107;28;20029;-78
2021/03/31 02:38:10;;;;;;;16.53;8.50;;;;;;;6.99;57.17;97140.66;5067014;28;20728;-78
2021/03/31 02:40:37;;;;;;;17.57;8.80;;;;;;;7.04;57.13;97137.66;5057156;28;20028;-79
2021/03/31 02:43:06;;;;;;;14.40;7.77;;;;;;;7.03;56.64;97125.56;5066201;28;20118;-79
2021/03/31 02:45:33;;;;;;;17.50;8.33;;;;;;;7.02;56.54;97134.34;5052862;28;20032;-78
2021/03/31 02:48:01;;;;;;;16.70;8.53;;;;;;;6.99;56.86;97130.19;5055870;28;20016;-78
2021/03/31 02:50:29;;;;;;;16.40;8.37;;;;;;;7.01;56.85;97127.47;5061070;28;20102;-77
2021/03/31 02:52:56;;;;;;;15.97;8.33;;;;;;;7.01;56.73;97124.84;5060318;28;20039;-78
2021/03/31 02:55:23;;;;;;;18.50;9.27;;;;;;;6.99;57.05;97127.56;5058140;28;20024;-79
2021/03/31 02:57:51;;;;;;;16.70;8.53;;;;;;;6.95;57.08;97115.69;5054681;28;20523;-78
2021/03/31 03:00:18;;;;;;;19.30;9.30;;;;;;;6.95;57.28;97120.06;5055285;28;20688;-78
2021/03/31 03:02:45;;;;;;;16.67;8.97;;;;;;;6.82;57.82;97113.13;5048399;28;20967;-78
2021/03/31 03:05:13;;;;;;;15.10;8.47;;;;;;;6.79;57.68;97108.13;5050580;28;20756;-78
2021/03/31 03:07:40;;;;;;;21.87;9.47;;;;;;;6.76;57.87;97116.19;5073891;28;20028;-78
2021/03/31 03:10:07;;;;;;;14.07;8.50;;;;;;;6.75;58.24;97114.53;5042682;28;20033;-78
2021/03/31 03:12:41;;;;;;;18.97;8.73;;;;;;;6.68;58.15;97115.13;5050910;28;20503;-78
2021/03/31 03:15:13;;;;;;;18.27;8.98;;;;;;;6.70;58.21;97114.03;5046262;28;20040;-78
2021/03/31 03:17:40;;;;;;;14.47;8.37;;;;;;;6.66;58.17;97107.38;5059453;28;20111;-78
2021/03/31 03:20:08;;;;;;;15.47;9.17;;;;;;;6.59;59.02;97111.41;5076928;28;20052;-78
2021/03/31 03:22:35;;;;;;;17.60;9.63;;;;;;;6.66;58.48;97109.16;5064481;28;20472;-78
2021/03/31 03:25:03;;;;;;;16.57;9.33;;;;;;;6.59;58.36;97108.78;5059061;28;20033;-80
2021/03/31 03:27:30;;;;;;;18.67;9.00;;;;;;;6.55;58.45;97100.34;5054559;28;20030;-78
2021/03/31 03:29:56;;;;;;;16.90;8.90;;;;;;;6.50;58.87;97107.66;5066497;28;20033;-78
2021/03/31 03:32:22;;;;;;;16.30;9.47;;;;;;;6.53;59.07;97101.38;5076773;28;20052;-79
2021/03/31 03:34:50;;;;;;;16.07;8.83;;;;;;;6.51;58.92;97098.91;5074856;28;20554;-81
2021/03/31 03:37:19;;;;;;;21.20;9.30;;;;;;;6.50;59.02;97099.81;5044846;28;20028;-79
2021/03/31 03:39:45;;;;;;;18.63;9.57;;;;;;;6.51;59.37;97098.06;5047468;28;20481;-78
2021/03/31 03:42:11;;;;;;;19.77;9.43;;;;;;;6.50;59.51;97101.59;5060139;28;20115;-79
2021/03/31 03:44:37;;;;;;;14.93;9.13;;;;;;;6.53;59.63;97096.16;5053129;28;20033;-79
2021/03/31 03:47:04;;;;;;;22.17;10.07;;;;;;;6.47;59.57;97104.44;5054338;28;20478;-79
2021/03/31 03:49:35;;;;;;;16.07;8.43;;;;;;;6.36;60.05;97108.69;5048975;28;20044;-79
2021/03/31 03:52:01;;;;;;;15.73;8.63;;;;;;;6.44;59.78;97102.06;5057218;28;20093;-79
2021/03/31 03:54:27;;;;;;;20.27;8.20;;;;;;;6.39;60.27;97099.78;5036885;28;20718;-79
2021/03/31 03:56:52;;;;;;;16.60;8.13;;;;;;;6.40;60.03;97100.63;5062243;28;20033;-78
2021/03/31 03:59:23;;;;;;;15.73;8.17;;;;;;;6.41;59.67;97103.13;5050795;28;20139;-78
2021/03/31 04:01:51;;;;;;;16.10;8.30;;;;;;;6.38;59.89;97106.81;5064779;28;20039;-79
2021/03/31 04:04:21;;;;;;;16.30;9.77;;;;;;;6.36;60.04;97108.69;5069750;28;20166;-79
2021/03/31 04:06:47;;;;;;;15.43;8.70;;;;;;;6.39;60.12;97105.00;5054901;28;20058;-79
2021/03/31 04:09:13;;;;;;;14.20;8.10;;;;;;;6.43;59.96;97105.63;5081282;28;20028;-79
2021/03/31 04:11:41;;;;;;;16.40;8.93;;;;;;;6.17;61.21;97105.75;5052029;28;20116;-79
2021/03/31 04:14:08;;;;;;;18.07;8.77;;;;;;;5.98;61.76;97108.00;5065949;28;20082;-79
2021/03/31 04:16:36;;;;;;;13.47;7.73;;;;;;;6.07;62.23;97104.72;5072151;28;20107;-79
2021/03/31 04:19:05;;;;;;;17.83;8.83;;;;;;;6.19;61.61;97108.25;5057202;28;20496;-79
2021/03/31 04:21:34;;;;;;;16.50;9.87;;;;;;;6.11;61.96;97106.19;5070037;28;20469;-79
2021/03/31 04:24:01;;;;;;;14.80;8.07;;;;;;;6.17;61.91;97103.13;5060616;28;20518;-79
2021/03/31 04:26:30;;;;;;;18.07;9.43;;;;;;;6.17;61.55;97102.28;5055983;28;20477;-79
2021/03/31 04:28:57;;;;;;;12.07;7.83;;;;;;;6.14;61.66;97098.97;5071601;28;20464;-78
2021/03/31 04:31:24;;;;;;;14.47;7.67;;;;;;;6.11;62.15;97101.78;5073424;28;20500;-79
2021/03/31 04:33:51;;;;;;;15.10;8.53;;;;;;;6.06;62.11;97103.88;5067013;28;20459;-79
2021/03/31 04:36:18;;;;;;;17.63;8.67;;;;;;;6.06;61.98;97095.22;5079719;28;20474;-79
2021/03/31 04:38:47;;;;;;;16.20;7.60;;;;;;;6.08;62.50;97101.19;5079822;28;20446;-78
2021/03/31 04:41:14;;;;;;;14.60;8.00;;;;;;;6.03;62.69;97095.44;5039528;28;20934;-79
2021/03/31 04:43:40;;;;;;;17.07;8.77;;;;;;;5.96;62.55;97096.81;5068918;28;20091;-79
2021/03/31 04:46:09;;;;;;;14.37;7.77;;;;;;;6.00;62.48;97095.66;5064564;28;20481;-79
2021/03/31 04:48:36;;;;;;;18.13;8.50;;;;;;;6.03;62.33;97104.09;5058907;28;20458;-79
2021/03/31 04:51:02;;;;;;;17.37;8.70;;;;;;;6.02;62.47;97102.44;5053750;28;20471;-80
2021/03/31 04:53:28;;;;;;;15.37;8.40;;;;;;;6.05;62.59;97102.22;5071966;28;20855;-79
2021/03/31 04:55:54;;;;;;;15.23;8.93;;;;;;;6.10;62.66;97102.75;5065394;28;20111;-79
2021/03/31 04:58:20;;;;;;;17.70;9.13;;;;;;;6.07;62.44;97107.31;5053401;28;20035;-81
2021/03/31 05:00:46;;;;;;;17.30;8.80;;;;;;;6.11;62.39;97100.97;5046948;28;20052;-79
2021/03/31 05:03:11;;;;;;;14.80;7.87;;;;;;;6.12;62.00;97103.44;5047009;28;20028;-79
2021/03/31 05:05:37;;;;;;;15.97;8.40;;;;;;;6.17;61.68;97105.75;5042552;28;20029;-80
2021/03/31 05:08:03;;;;;;;16.47;8.67;;;;;;;6.05;63.07;97106.63;5052622;28;20024;-80
2021/03/31 05:10:29;;;;;;;15.70;8.77;;;;;;;5.99;62.97;97107.06;5059438;28;20025;-79
2021/03/31 05:12:55;;;;;;;16.90;8.87;;;;;;;6.03;62.90;97103.28;5045660;28;20717;-79
2021/03/31 05:15:22;;;;;;;16.67;9.07;;;;;;;6.05;62.59;97102.22;5046705;28;20544;-79
2021/03/31 05:17:48;;;;;;;14.70;8.00;;;;;;;5.95;62.60;97105.63;5043538;28;20025;-79
2021/03/31 05:20:16;;;;;;;12.57;7.80;;;;;;;5.83;63.69;97102.06;5043522;28;20040;-79
2021/03/31 05:22:43;;;;;;;18.50;8.70;;;;;;;5.91;63.50;97100.56;5056755;28;20028;-78
2021/03/31 05:25:09;;;;;;;17.17;8.57;;;;;;;6.07;62.76;97097.75;5050312;28;20032;-79
2021/03/31 05:27:37;;;;;;;18.00;8.57;;;;;;;6.28;62.84;97097.97;5056933;28;21081;-79
2021/03/31 05:30:08;;;;;;;13.07;7.10;;;;;;;6.62;61.67;97092.88;5040312;28;20059;-78
2021/03/31 05:32:33;;;;;;;17.70;8.60;;;;;;;6.78;60.87;97090.78;5056215;28;20036;-78
2021/03/31 05:34:59;;;;;;;17.33;8.77;;;;;;;7.00;60.43;97097.84;5055176;28;20094;-79
2021/03/31 05:37:25;;;;;;;16.27;7.93;;;;;;;7.14;60.50;97091.56;5057851;28;20040;-79
2021/03/31 05:39:51;;;;;;;14.63;7.80;;;;;;;7.15;60.04;97095.88;5058551;28;20025;-80
2021/03/31 05:42:17;;;;;;;18.83;8.63;;;;;;;7.44;58.68;97087.53;5058492;28;20040;-78
2021/03/31 05:44:44;;;;;;;17.73;7.93;;;;;;;7.52;59.03;97090.41;5057101;28;20036;-79
2021/03/31 05:47:16;;;;;;;13.77;7.43;;;;;;;7.85;58.11;97089.56;5078523;28;20512;-79
2021/03/31 05:49:42;;;;;;;17.10;8.23;;;;;;;7.83;58.13;97090.63;5053924;28;20033;-79
2021/03/31 05:52:09;;;;;;;14.37;8.43;;;;;;;7.93;57.80;97094.19;5037050;28;20541;-78
2021/03/31 05:54:35;;;;;;;18.17;8.07;;;;;;;8.18;56.77;97088.66;5044570;28;20029;-79
2021/03/31 05:57:01;;;;;;;13.80;7.77;;;;;;;8.59;56.34;97081.03;5049876;28;20033;-79
2021/03/31 05:59:27;;;;;;;14.20;7.87;;;;;;;8.90;55.25;97088.03;5067348;28;20035;-80
2021/03/31 06:01:53;;;;;;;14.77;7.77;;;;;;;9.04;55.29;97086.03;5061523;28;20028;-78
2021/03/31 06:04:19;;;;;;;17.47;7.97;;;;;;;8.35;55.69;97092.53;5067417;28;20495;-79
2021/03/31 06:06:44;;;;;;;14.47;8.43;;;;;;;8.46;55.42;97092.53;5056180;28;20033;-79
2021/03/31 06:09:10;;;;;;;16.40;8.80;;;;;;;8.48;55.52;97095.00;5063641;28;20032;-79
2021/03/31 06:11:56;;;;;;;18.37;8.37;;;;;;;9.20;54.35;97089.88;5068474;28;20031;-79
2021/03/31 06:14:36;;;;;;;14.87;7.70;;;;;;;8.74;54.96;97085.84;5047877;28;20121;-79
2021/03/31 06:17:03;;;;;;;14.27;8.60;;;;;;;8.87;55.79;97084.84;5043222;28;20044;-78
2021/03/31 06:19:29;;;;;;;16.57;8.73;;;;;;;9.37;54.37;97082.38;5051439;28;20028;-77
2021/03/31 06:22:16;;;;;;;15.77;8.27;;;;;;;9.66;53.91;97079.88;5025319;28;20551;-77
2021/03/31 06:24:47;;;;;;;17.30;9.23;;;;;;;10.29;51.96;97080.44;5056940;28;20044;-77
2021/03/31 06:27:14;;;;;;;15.23;7.90;;;;;;;10.52;50.70;97074.94;5064188;28;20029;-76
2021/03/31 06:29:43;;;;;;;13.13;8.30;;;;;;;10.17;51.46;97076.25;5052344;28;20514;-77
2021/03/31 06:32:17;;;;;;;15.60;9.30;;;;;;;10.24;51.89;97068.66;5059593;28;20602;-77
2021/03/31 06:34:54;;;;;;;13.00;7.97;;;;;;;10.85;50.56;97063.16;5048352;28;20037;-77
2021/03/31 06:37:30;;;;;;;20.83;9.80;;;;;;;11.59;49.36;97064.19;5035430;28;20056;-77
2021/03/31 06:39:57;;;;;;;17.07;8.57;;;;;;;11.97;47.96;97056.16;5031263;28;20029;-77
2021/03/31 06:42:41;;;;;;;19.23;9.10;;;;;;;12.02;48.34;97050.44;5041114;28;20036;-77
2021/03/31 06:50:01;;;;;;;18.70;9.57;;;;;;;11.85;48.88;97059.97;5055605;28;20094;-75
2021/03/31 06:52:27;;;;;;;16.80;9.67;;;;;;;11.82;49.65;97060.22;5050084;28;20452;-77
2021/03/31 06:55:01;;;;;;;17.53;9.50;;;;;;;12.22;48.58;97061.69;5060384;28;20029;-78
2021/03/31 06:57:31;;;;;;;17.00;9.73;;;;;;;12.72;47.57;97054.06;5052880;28;20056;-77
2021/03/31 07:00:10;;;;;;;19.37;10.07;;;;;;;13.49;46.19;97050.81;5042753;28;20099;-78
2021/03/31 07:02:38;;;;;;;18.07;9.73;;;;;;;13.38;46.34;97043.97;5045385;28;20144;-78
2021/03/31 07:05:05;;;;;;;18.00;9.40;;;;;;;13.38;46.99;97044.81;5059493;28;20083;-78
2021/03/31 07:07:37;;;;;;;22.03;9.93;;;;;;;14.02;44.93;97033.84;5059335;28;20043;-78
2021/03/31 07:10:20;;;;;;;18.10;9.63;;;;;;;14.27;45.39;97030.25;5054056;28;20496;-78
2021/03/31 07:12:47;;;;;;;17.03;9.20;;;;;;;14.27;45.32;97027.63;5051024;28;20190;-78
2021/03/31 07:15:15;;;;;;;17.00;9.23;;;;;;;14.90;43.83;97028.03;5063336;28;20020;-78
2021/03/31 07:17:48;;;;;;;16.07;9.63;;;;;;;15.52;42.46;97028.22;5069388;28;20536;-78
2021/03/31 07:20:14;;;;;;;22.00;10.55;;;;;;;15.68;41.63;97020.22;5029331;28;20036;-79
2021/03/31 07:22:40;;;;;;;21.70;10.00;;;;;;;15.53;42.31;97022.75;5066819;28;20068;-78
2021/03/31 07:25:08;;;;;;;20.53;10.47;;;;;;;15.38;42.75;97029.75;5042761;28;20115;-78
2021/03/31 07:27:35;;;;;;;17.60;10.57;;;;;;;14.75;44.78;97031.31;5059977;28;20052;-79
2021/03/31 07:30:11;;;;;;;18.27;10.90;;;;;;;14.18;46.63;97025.09;5051132;28;20071;-78
2021/03/31 07:32:48;;;;;;;18.27;9.87;;;;;;;14.39;45.98;97028.97;5049782;28;20040;-77
2021/03/31 07:35:15;;;;;;;17.03;9.03;;;;;;;14.83;44.92;97022.56;5046098;28;20025;-79
2021/03/31 07:37:44;;;;;;;20.23;10.23;;;;;;;15.45;42.90;97020.09;5056915;28;20043;-79
2021/03/31 07:40:11;;;;;;;21.80;10.10;;;;;;;16.14;42.17;97015.03;5060763;28;20028;-80
2021/03/31 07:42:44;;;;;;;15.03;10.00;;;;;;;16.89;40.70;97019.66;5062941;28;20028;-80
2021/03/31 07:45:12;;;;;;;16.45;9.40;;;;;;;17.62;38.51;97014.59;5066053;28;20111;-79
2021/03/31 07:47:40;;;;;;;19.33;10.50;;;;;;;17.56;38.02;97016.16;5077139;28;20027;-79
2021/03/31 07:50:09;;;;;;;16.43;10.00;;;;;;;18.10;37.81;97013.19;5066117;28;20032;-79
2021/03/31 07:52:53;;;;;;;19.30;9.90;;;;;;;18.05;38.04;97015.59;5050319;28;20035;-80
2021/03/31 07:55:47;;;;;;;16.17;10.27;;;;;;;17.94;38.11;97017.88;5066702;28;20398;-81
2021/03/31 07:58:15;;;;;;;14.83;9.87;;;;;;;18.21;37.19;97021.69;5044237;28;20040;-79
2021/03/31 08:00:44;;;;;;;17.43;10.00;;;;;;;18.95;36.20;97016.91;5058331;28;20021;-79
2021/03/31 08:03:12;;;;;;;15.70;9.47;;;;;;;18.55;37.15;97019.19;5061293;28;20040;-79
2021/03/31 08:06:06;;;;;;;17.40;9.90;;;;;;;19.60;34.35;97014.06;5082243;28;20537;-80
2021/03/31 08:08:35;;;;;;;;;;;;;;;19.52;33.50;97013.22;5048643;28;20047;-81
2021/03/31 08:11:01;;;;;;;16.85;9.88;;;;;;;19.33;35.25;97013.91;5050884;28;19941;-81
2021/03/31 08:13:28;;;;;;;16.10;8.43;;;;;;;19.52;33.63;97013.22;5073194;28;20420;-80
2021/03/31 08:15:54;;;;;;;13.88;10.05;;;;;;;20.02;32.92;97015.75;5046865;28;20426;-80
2021/03/31 08:18:22;;;;;;;17.17;9.77;;;;;;;19.82;33.55;97013.00;5069945;28;20067;-80
2021/03/31 08:20:49;;;;;;;15.40;9.93;;;;;;;20.40;32.90;97007.22;5052682;28;20191;-80
2021/03/31 08:23:35;;;;;;;14.52;9.50;;;;;;;21.23;31.02;97007.72;5051614;28;20048;-81
2021/03/31 08:26:35;;;;;;;18.60;9.98;;;;;;;20.39;32.55;97019.75;5051984;28;20118;-81
2021/03/31 08:29:27;;;;;;;14.30;9.02;;;;;;;21.46;31.13;97012.63;5043424;28;20254;-79
2021/03/31 08:31:53;;;;;;;14.43;9.70;;;;;;;22.01;30.82;97007.75;5059672;28;20089;-80
2021/03/31 08:34:18;;;;;;;18.33;9.50;;;;;;;22.73;28.85;97003.00;5053068;28;20048;-80
2021/03/31 08:36:44;;;;;;;14.68;10.02;;;;;;;22.97;28.04;97003.28;5053511;28;20021;-81
2021/03/31 08:39:13;;;;;;;16.88;9.75;;;;;;;23.06;28.65;97001.97;5049899;28;20307;-81
2021/03/31 08:41:47;;;;;;;20.40;10.52;;;;;;;24.02;26.64;96995.22;5037403;28;20644;-81
2021/03/31 08:44:27;;;;;;;20.02;12.63;;;;;;;24.48;25.96;96999.19;5060287;28;20021;-79
2021/03/31 08:46:54;;;;;;;15.75;11.57;;;;;;;23.59;28.47;97000.66;5051768;28;20045;-81
2021/03/31 08:49:28;;;;;;;19.15;10.73;;;;;;;24.69;25.85;96993.28;5063707;28;20020;-81
2021/03/31 08:52:00;;;;;;;16.40;9.98;;;;;;;24.58;26.58;96990.53;5067576;28;20035;-82
2021/03/31 08:54:43;;;;;;;15.98;10.80;;;;;;;24.96;26.08;96998.25;5068349;28;21251;-81
2021/03/31 08:57:11;;;;;;;20.40;10.05;;;;;;;25.12;25.83;96997.59;5058650;28;20094;-81
2021/03/31 08:59:40;;;;;;;21.70;11.63;;;;;;;24.89;25.09;96994.84;5044795;28;20024;-80
2021/03/31 09:02:06;;;;;;;17.40;10.13;;;;;;;25.69;24.85;96978.13;5033053;28;20132;-80
2021/03/31 09:04:33;;;;;;;18.63;11.07;;;;;;;25.42;24.41;96982.38;5052957;28;20126;-81
2021/03/31 09:07:01;;;;;;;17.08;9.90;;;;;;;25.52;23.30;96979.91;5044269;28;20033;-80
2021/03/31 09:09:36;;;;;;;15.05;9.73;;;;;;;25.26;22.87;96981.22;5046762;28;20105;-81
2021/03/31 09:12:05;;;;;;;14.40;9.18;;;;;;;25.55;22.85;96980.28;5058468;28;20122;-80
2021/03/31 09:14:37;;;;;;;15.32;9.75;;;;;;;25.57;22.25;96974.63;5047296;28;20074;-80
2021/03/31 09:17:05;;;;;;;14.05;9.70;;;;;;;24.28;24.32;96982.47;5050697;28;20681;-79
2021/03/31 09:19:36;;;;;;;15.23;9.45;;;;;;;24.91;23.54;96973.91;5032373;28;20059;-79
2021/03/31 09:22:10;;;;;;;15.85;9.60;;;;;;;24.68;23.51;96978.22;5046053;28;20037;-78
2021/03/31 09:24:48;;;;;;;13.60;10.13;;;;;;;24.17;24.37;96974.13;5040251;28;20031;-77
2021/03/31 09:27:26;;;;;;;18.30;9.80;;;;;;;24.86;23.18;96965.72;5052253;28;20028;-79
2021/03/31 09:29:56;;;;;;;15.23;9.65;;;;;;;24.60;23.71;96967.75;5068306;28;20055;-78
2021/03/31 09:32:36;;;;;;;17.35;9.82;;;;;;;24.51;24.28;96968.31;5052000;28;20036;-78
2021/03/31 09:35:17;;;;;;;18.15;9.95;;;;;;;24.49;23.98;96968.56;5061479;28;20108;-78
2021/03/31 09:37:49;;;;;;;14.98;10.40;;;;;;;25.28;23.06;96966.44;5039091;28;20124;-77
2021/03/31 09:40:26;;;;;;;13.93;9.60;;;;;;;24.68;23.91;96962.06;5067211;28;20065;-80
2021/03/31 09:42:57;;;;;;;18.20;11.25;;;;;;;25.82;23.21;96947.44;5067911;28;20032;-81
2021/03/31 09:45:24;;;;;;;14.15;9.18;;;;;;;26.27;22.93;96947.50;5071690;28;20052;-79
2021/03/31 09:47:50;;;;;;;12.88;9.40;;;;;;;26.75;21.41;96948.91;5075197;28;20025;-79
2021/03/31 09:50:16;;;;;;;13.88;9.30;;;;;;;26.90;21.33;96948.34;5059669;28;20031;-78
2021/03/31 09:52:42;;;;;;;14.88;9.77;;;;;;;26.52;22.90;96947.16;5046214;28;20063;-79
2021/03/31 09:55:11;;;;;;;14.07;9.05;;;;;;;27.30;20.50;96941.09;5075266;28;20033;-79
2021/03/31 09:57:39;;;;;;;13.05;8.88;;;;;;;27.43;20.99;96938.91;5051633;28;20051;-79
2021/03/31 10:00:10;;;;;;;15.75;9.75;;;;;;;26.95;21.33;96944.91;5053434;28;20029;-78
2021/03/31 10:02:41;;;;;;;14.93;9.07;;;;;;;25.95;22.00;96935.56;5053867;28;20024;-79
2021/03/31 10:05:12;;;;;;;17.70;12.23;;;;;;;26.77;21.28;96937.88;5053700;28;20084;-78
2021/03/31 10:07:37;;;;;;;13.48;9.05;;;;;;;28.10;20.32;96929.75;5058204;28;20024;-78
2021/03/31 10:10:05;;;;;;;13.68;10.07;;;;;;;28.01;20.48;96930.44;5069937;28;20080;-78
2021/03/31 10:12:34;;;;;;;14.32;9.25;;;;;;;26.42;21.92;96933.47;5083341;28;20054;-79
2021/03/31 10:15:03;;;;;;;13.65;9.18;;;;;;;27.20;21.15;96926.41;5063448;28;20265;-79
2021/03/31 10:17:31;;;;;;;12.18;7.15;;;;;;;27.27;19.50;96927.06;5077929;28;20063;-79
2021/03/31 10:20:13;;;;;;;10.40;7.05;;;;;;;27.61;20.01;96928.84;5078340;28;20059;-80
2021/03/31 10:22:40;;;;;;;12.63;8.57;;;;;;;27.67;20.61;96920.56;5075792;28;20393;-78
2021/03/31 10:25:07;;;;;;;12.45;8.45;;;;;;;28.01;20.19;96911.53;5067672;28;20463;-79
2021/03/31 10:27:41;;;;;;;12.43;7.20;;;;;;;27.57;20.27;96920.44;5050846;28;20040;-79
2021/03/31 10:30:08;;;;;;;7.82;4.85;;;;;;;27.54;17.10;96915.53;5051609;28;20035;-78
2021/03/31 10:32:33;;;;;;;12.35;7.95;;;;;;;28.08;19.73;96912.94;5071606;28;20031;-78
2021/03/31 10:34:59;;;;;;;11.73;6.47;;;;;;;27.30;18.60;96914.94;5062143;28;20565;-79
2021/03/31 10:37:39;;;;;;;12.25;7.40;;;;;;;27.56;18.90;96913.38;5063303;28;20029;-79
2021/03/31 10:51:03;;;;;;;10.82;6.47;;;;;;;27.39;17.85;96905.31;5061265;28;20032;-80
2021/03/31 10:53:40;;;;;;;10.52;6.35;;;;;;;27.37;17.44;96903.97;5062356;28;20063;-78
2021/03/31 10:56:07;;;;;;;11.65;7.15;;;;;;;27.62;17.59;96900.75;5075457;28;20098;-78
2021/03/31 10:58:33;;;;;;;11.27;6.43;;;;;;;28.15;16.99;96893.81;5049308;28;20036;-78
2021/03/31 11:00:59;;;;;;;9.23;5.80;;;;;;;27.95;16.00;96886.31;5042006;28;20040;-80
2021/03/31 11:03:25;;;;;;;10.48;5.53;;;;;;;28.45;15.00;96892.50;5049060;28;20052;-80
2021/03/31 11:05:52;;;;;;;7.65;4.60;;;;;;;28.05;14.81;96888.31;5071255;28;20033;-80
2021/03/31 11:08:19;;;;;;;6.10;3.30;;;;;;;27.75;12.71;96886.88;5083687;28;20024;-79
2021/03/31 11:10:44;;;;;;;7.30;3.80;;;;;;;28.67;13.37;96890.50;5056873;28;20052;-78
2021/03/31 11:13:10;;;;;;;6.90;4.57;;;;;;;28.50;14.91;96885.22;5073154;28;20728;-79
2021/03/31 11:15:36;;;;;;;7.47;4.93;;;;;;;27.59;15.41;96879.66;5056806;28;20527;-79
2021/03/31 11:20:44;;;;;;;7.60;4.63;;;;;;;28.84;14.14;96880.38;5051028;28;20028;-79
2021/03/31 11:25:55;;;;;;;7.30;4.97;;;;;;;29.17;14.16;96867.59;5056564;28;20028;-80
2021/03/31 11:28:22;;;;;;;7.57;5.38;;;;;;;28.74;14.89;96869.47;5045653;28;20620;-81
2021/03/31 11:30:49;;;;;;;9.38;5.32;;;;;;;28.57;15.56;96866.06;5050512;28;20028;-81
2021/03/31 11:33:15;;;;;;;8.15;4.78;;;;;;;28.58;13.92;96859.59;5069436;28;20032;-81
2021/03/31 11:35:41;;;;;;;6.80;4.20;;;;;;;28.37;15.02;96859.41;5067753;28;20035;-82
2021/03/31 11:38:07;;;;;;;7.93;3.90;;;;;;;29.10;13.69;96853.47;5061582;28;20169;-81
2021/03/31 11:40:35;;;;;;;5.90;3.28;;;;;;;28.47;12.67;96857.88;5065622;28;20039;-80
2021/03/31 11:43:00;;;;;;;8.02;3.40;;;;;;;27.81;13.51;96853.44;5065074;28;20592;-80
2021/03/31 11:45:27;;;;;;;8.50;4.32;;;;;;;27.52;14.23;96846.59;5065816;28;20017;-80
2021/03/31 11:47:54;;;;;;;8.32;4.15;;;;;;;27.52;15.18;96843.91;5076396;28;20482;-80
2021/03/31 11:50:24;;;;;;;7.78;3.70;;;;;;;27.98;14.12;96839.03;5050931;28;20032;-80
2021/03/31 11:52:54;;;;;;;7.50;4.75;;;;;;;27.13;15.33;96841.25;5061021;28;20103;-81
2021/03/31 11:55:21;;;;;;;6.93;4.53;;;;;;;28.48;14.44;96829.75;5052316;28;20032;-79
2021/03/31 11:57:47;;;;;;;7.07;4.43;;;;;;;28.02;14.08;96829.31;5047673;28;20138;-80
2021/03/31 12:00:14;;;;;;;7.82;4.60;;;;;;;27.46;14.84;96829.50;5049475;28;20118;-80